Time;durP1;ratioP1;P1;durP2;ratioP2;P2;SDS_P1;SDS_P2;PMS_P1;PMS_P2;Temp;Humidity;BMP_temperature;BMP_pressure;BME280_temperature;BME280_humidity;BME280_pressure;Samples;Min_cycle;Max_cycle;Signal;HPM_P1;HPM_P2
2021/11/23 00:01:18;;;;;;;2.50;2.30;;;0.20;99.90;;;1.00;100.00;99283.53;5060006;28;20490;-81
2021/11/23 00:03:47;;;;;;;3.53;2.43;;;0.10;99.90;;;1.00;100.00;99288.69;5068644;28;20542;-81
2021/11/23 00:06:17;;;;;;;3.37;2.27;;;0.10;99.90;;;1.01;100.00;99285.16;5060180;28;20450;-81
2021/11/23 00:08:46;;;;;;;4.20;2.03;;;0.20;99.90;;;0.98;100.00;99298.22;5059481;28;20502;-81
2021/11/23 00:11:16;;;;;;;3.70;1.87;;;0.10;99.90;;;0.95;100.00;99306.97;5053971;28;20462;-81
2021/11/23 00:13:45;;;;;;;2.70;2.20;;;-0.10;99.90;;;0.97;100.00;99302.53;5057415;28;20459;-81
2021/11/23 00:16:18;;;;;;;8.00;2.37;;;0.00;99.90;;;1.01;100.00;99300.59;5059911;28;20457;-81
2021/11/23 00:18:47;;;;;;;2.03;1.80;;;0.10;99.90;;;0.98;100.00;99306.78;5059006;28;20533;-81
2021/11/23 00:21:17;;;;;;;4.30;1.93;;;0.00;99.90;;;0.94;100.00;99310.47;5062511;28;20564;-81
2021/11/23 00:23:46;;;;;;;2.47;2.20;;;-0.10;99.90;;;0.95;100.00;99308.72;5056264;28;20956;-81
2021/11/23 00:26:16;;;;;;;2.40;2.20;;;0.00;99.90;;;0.87;100.00;99309.19;5055281;28;20498;-81
2021/11/23 00:28:45;;;;;;;5.47;2.40;;;-0.20;99.90;;;0.91;100.00;99320.97;5059403;28;20566;-81
2021/11/23 00:31:14;;;;;;;3.00;1.90;;;0.00;99.90;;;0.90;100.00;99318.50;5055264;28;20491;-81
2021/11/23 00:33:43;;;;;;;2.73;2.23;;;0.00;99.90;;;0.90;100.00;99315.91;5058098;28;20465;-81
2021/11/23 00:36:13;;;;;;;1.60;1.50;;;0.00;99.90;;;0.82;100.00;99320.72;5059570;28;20468;-80
2021/11/23 00:38:44;;;;;;;3.00;2.40;;;-0.20;99.90;;;0.85;100.00;99325.66;5056872;28;20460;-81
2021/11/23 00:41:17;;;;;;;2.00;1.80;;;-0.10;99.90;;;0.84;100.00;99319.69;5057837;28;20495;-81
2021/11/23 00:43:47;;;;;;;2.10;1.90;;;-0.10;99.90;;;0.81;100.00;99324.19;5052693;28;20519;-81
2021/11/23 00:46:17;;;;;;;2.73;2.33;;;-0.20;99.90;;;0.73;100.00;99321.28;5055010;28;20462;-81
2021/11/23 00:48:51;;;;;;;1.83;1.50;;;-0.30;99.90;;;0.78;100.00;99321.81;5050979;28;20554;-81
2021/11/23 00:51:21;;;;;;;3.07;2.00;;;-0.20;99.90;;;0.82;100.00;99325.84;5050191;28;20536;-81
2021/11/23 00:53:50;;;;;;;2.00;1.77;;;-0.10;99.90;;;0.78;100.00;99321.81;5052834;28;20514;-80
2021/11/23 00:56:20;;;;;;;2.50;2.10;;;-0.20;99.90;;;0.77;100.00;99317.56;5059607;28;20456;-80
2021/11/23 00:58:48;;;;;;;4.20;2.00;;;-0.20;99.90;;;0.79;100.00;99326.88;5056763;28;20705;-81
2021/11/23 01:01:17;;;;;;;2.67;1.90;;;0.00;99.90;;;0.81;100.00;99321.63;5053098;28;20491;-80
2021/11/23 01:03:46;;;;;;;3.67;1.90;;;-0.10;99.90;;;0.80;100.00;99322.56;5054971;28;20469;-80
2021/11/23 01:06:14;;;;;;;2.73;2.00;;;-0.20;99.90;;;0.72;100.00;99323.03;5062890;28;21054;-81
2021/11/23 01:08:43;;;;;;;4.00;2.07;;;-0.30;99.90;;;0.61;100.00;99317.69;5057809;28;20833;-81
2021/11/23 01:11:16;;;;;;;2.10;1.90;;;-0.50;99.90;;;0.67;100.00;99319.06;5054113;28;20488;-81
2021/11/23 01:13:48;;;;;;;3.97;2.30;;;-0.30;99.90;;;0.64;100.00;99321.81;5050357;28;20438;-81
2021/11/23 01:16:17;;;;;;;3.57;1.97;;;-0.40;99.90;;;0.67;100.00;99321.63;5055516;28;20827;-81
2021/11/23 01:18:47;;;;;;;5.57;2.40;;;-0.30;99.90;;;0.64;100.00;99317.50;5053802;28;20471;-80
2021/11/23 01:21:15;;;;;;;2.90;1.87;;;-0.40;99.90;;;0.66;100.00;99315.66;5054227;28;20495;-81
2021/11/23 01:23:44;;;;;;;2.73;2.30;;;-0.20;99.90;;;0.60;100.00;99320.34;5049410;28;20470;-81
2021/11/23 01:26:13;;;;;;;3.07;2.27;;;-0.40;99.90;;;0.64;100.00;99316.69;5050209;28;20866;-81
2021/11/23 01:28:41;;;;;;;6.77;2.27;;;-0.40;99.90;;;0.60;100.00;99317.78;5052581;28;21011;-81
2021/11/23 01:31:11;;;;;;;2.77;2.10;;;-0.40;99.90;;;0.56;100.00;99318.88;5051605;28;21232;-81
2021/11/23 01:33:40;;;;;;;3.87;1.90;;;-0.40;99.90;;;0.50;100.00;99320.91;5052323;28;21004;-80
2021/11/23 01:36:08;;;;;;;3.47;2.13;;;-0.50;99.90;;;0.51;100.00;99316.59;5060382;28;20494;-80
2021/11/23 01:38:40;;;;;;;2.10;1.77;;;-0.50;99.90;;;0.44;100.00;99315.31;5053234;28;20515;-81
2021/11/23 01:41:10;;;;;;;2.50;1.90;;;-0.60;99.90;;;0.47;100.00;99315.13;5052442;28;20500;-81
2021/11/23 01:43:39;;;;;;;2.70;2.20;;;-0.40;99.90;;;0.48;100.00;99327.91;5052764;28;20511;-81
2021/11/23 01:46:09;;;;;;;3.50;2.10;;;-0.50;99.90;;;0.49;100.00;99329.53;5056747;28;20470;-81
2021/11/23 01:48:39;;;;;;;2.23;1.83;;;-0.40;99.90;;;0.43;100.00;99323.94;5056561;28;20507;-81
2021/11/23 01:51:07;;;;;;;4.10;1.80;;;-0.50;99.90;;;0.36;100.00;99331.22;5058674;28;20525;-80
2021/11/23 01:53:36;;;;;;;1.80;1.70;;;-0.70;99.90;;;0.36;100.00;99331.22;5056095;28;20459;-81
2021/11/23 01:56:05;;;;;;;1.90;1.80;;;-0.70;99.90;;;0.34;100.00;99325.34;5053599;28;20490;-81
2021/11/23 01:58:34;;;;;;;2.77;1.90;;;-0.70;99.90;;;0.28;100.00;99319.72;5054918;28;20511;-81
2021/11/23 02:01:06;;;;;;;4.00;2.10;;;-0.70;99.90;;;0.27;100.00;99320.66;5050603;28;20595;-81
2021/11/23 02:03:36;;;;;;;1.77;1.67;;;-0.70;99.90;;;0.27;100.00;99313.75;5055261;28;20533;-81
2021/11/23 02:06:07;;;;;;;1.53;1.43;;;-0.60;99.90;;;0.33;100.00;99312.56;5056922;28;20518;-81
2021/11/23 02:08:37;;;;;;;1.83;1.73;;;-0.40;99.90;;;0.38;100.00;99324.22;5057849;28;20529;-80
2021/11/23 02:11:06;;;;;;;3.03;2.30;;;-0.50;99.90;;;0.38;100.00;99321.63;5057854;28;21043;-81
2021/11/23 02:13:35;;;;;;;4.03;2.10;;;-0.60;99.90;;;0.34;100.00;99327.91;5059705;28;20491;-80
2021/11/23 02:16:04;;;;;;;2.10;1.90;;;-0.60;99.90;;;0.32;100.00;99327.16;5063910;28;20444;-81
2021/11/23 02:18:33;;;;;;;2.40;1.40;;;-0.60;99.90;;;0.27;100.00;99336.91;5055077;28;20461;-81
2021/11/23 02:21:03;;;;;;;4.27;2.27;;;-0.80;99.90;;;0.29;100.00;99332.50;5057928;28;20585;-80
2021/11/23 02:23:32;;;;;;;2.40;2.10;;;-0.70;99.90;;;0.28;100.00;99324.84;5054970;28;20468;-81
2021/11/23 02:26:01;;;;;;;1.70;1.60;;;-0.60;99.90;;;0.34;100.00;99325.34;5061355;28;20460;-81
2021/11/23 02:28:30;;;;;;;2.70;1.93;;;-0.50;99.90;;;0.31;100.00;99322.91;5063334;28;20513;-81
2021/11/23 02:31:00;;;;;;;2.53;2.10;;;-0.60;99.90;;;0.25;100.00;99330.19;5061619;28;20471;-80
2021/11/23 02:33:31;;;;;;;4.40;2.17;;;-0.70;99.90;;;0.25;100.00;99328.44;5059361;28;20492;-80
2021/11/23 02:36:06;;;;;;;3.33;2.40;;;-0.70;99.90;;;0.24;100.00;99328.53;5060268;28;20494;-80
2021/11/23 02:38:38;;;;;;;2.00;1.83;;;-0.60;99.90;;;0.21;100.00;99329.53;5058709;28;20465;-80
2021/11/23 02:41:10;;;;;;;3.10;1.93;;;-0.70;99.90;;;0.26;100.00;99321.56;5060582;28;20529;-81
2021/11/23 02:43:41;;;;;;;1.90;1.80;;;-0.70;99.90;;;0.22;100.00;99331.19;5065576;28;20464;-80
2021/11/23 02:46:09;;;;;;;3.33;1.97;;;-0.60;99.90;;;0.18;100.00;99319.44;5055221;28;20465;-80
2021/11/23 02:48:39;;;;;;;2.20;1.77;;;-0.70;99.90;;;0.24;100.00;99324.25;5052958;28;20497;-81
2021/11/23 02:51:14;;;;;;;2.47;2.10;;;-0.60;99.90;;;0.20;100.00;99317.63;5053667;28;20481;-81
2021/11/23 02:53:44;;;;;;;4.50;1.80;;;-0.70;99.90;;;0.17;100.00;99312.66;5057716;28;20960;-80
2021/11/23 02:56:13;;;;;;;2.20;1.97;;;-0.70;99.90;;;0.21;100.00;99318.44;5063552;28;20462;-81
2021/11/23 02:58:46;;;;;;;5.10;2.37;;;-0.70;99.90;;;0.17;100.00;99315.22;5056761;28;20455;-81
2021/11/23 03:01:19;;;;;;;3.67;2.50;;;-0.80;99.90;;;0.22;100.00;99313.19;5057400;28;20497;-81
2021/11/23 03:03:50;;;;;;;2.47;2.00;;;-0.70;99.90;;;0.20;100.00;99315.03;5069037;28;20451;-81
2021/11/23 03:06:22;;;;;;;2.80;2.17;;;-0.70;99.90;;;0.18;100.00;99305.75;5063704;28;20520;-81
2021/11/23 03:08:54;;;;;;;3.60;2.00;;;-0.60;99.90;;;0.17;100.00;99310.09;5060396;28;20515;-81
2021/11/23 03:11:24;;;;;;;2.10;1.93;;;-0.70;99.90;;;0.16;100.00;99311.00;5067075;28;20464;-80
2021/11/23 03:13:53;;;;;;;2.60;2.20;;;-0.80;99.90;;;0.11;100.00;99313.00;5058234;28;20457;-81
2021/11/23 03:16:21;;;;;;;1.93;1.73;;;-0.90;99.90;;;0.16;100.00;99310.16;5069921;28;20884;-80
2021/11/23 03:18:50;;;;;;;2.63;2.17;;;-0.70;99.90;;;0.05;100.00;99312.53;5062163;28;20496;-80
2021/11/23 03:21:20;;;;;;;2.83;2.20;;;-0.90;99.90;;;-0.03;100.00;99318.13;5062705;28;20558;-81
2021/11/23 03:23:49;;;;;;;2.70;2.23;;;-1.10;99.90;;;-0.07;100.00;99302.03;5059147;28;20802;-80
2021/11/23 03:26:18;;;;;;;1.90;1.80;;;-1.10;99.90;;;-0.04;100.00;99306.19;5070253;28;20449;-80
2021/11/23 03:28:46;;;;;;;3.90;1.90;;;-1.10;99.90;;;0.01;100.00;99304.16;5059226;28;20828;-80
2021/11/23 03:31:15;;;;;;;6.03;2.70;;;-0.90;99.90;;;-0.02;100.00;99302.63;5063208;28;20586;-81
2021/11/23 03:33:43;;;;;;;19.33;2.57;;;-1.00;99.90;;;-0.01;100.00;99306.03;5065779;28;20463;-81
2021/11/23 03:36:12;;;;;;;5.87;2.30;;;-1.00;99.90;;;0.03;100.00;99304.94;5066626;28;21061;-80
2021/11/23 03:38:42;;;;;;;5.17;2.43;;;-0.90;99.90;;;-0.02;100.00;99299.22;5068153;28;20460;-80
2021/11/23 03:41:11;;;;;;;6.57;2.47;;;-1.00;99.90;;;-0.08;100.00;99297.84;5064457;28;20497;-80
2021/11/23 03:43:39;;;;;;;2.50;1.70;;;-1.10;99.90;;;-0.16;100.00;99304.31;5060174;28;20460;-80
2021/11/23 03:46:08;;;;;;;5.30;2.20;;;-1.20;99.90;;;-0.07;100.00;99303.81;5055056;28;20481;-80
2021/11/23 03:48:36;;;;;;;3.10;2.47;;;-1.00;99.90;;;-0.17;100.00;99302.66;5060309;28;20468;-80
2021/11/23 03:51:06;;;;;;;5.47;2.70;;;-1.20;99.90;;;-0.16;100.00;99304.31;5059471;28;20519;-81
2021/11/23 03:53:34;;;;;;;2.10;1.90;;;-1.10;99.90;;;-0.15;100.00;99303.41;5055834;28;20509;-80
2021/11/23 03:56:06;;;;;;;4.13;2.73;;;-1.00;99.90;;;-0.11;100.00;99303.16;5057033;28;20456;-80
2021/11/23 03:58:34;;;;;;;3.03;2.20;;;-1.00;99.90;;;-0.08;100.00;99302.97;5057073;28;20523;-80
2021/11/23 04:01:03;;;;;;;3.10;2.20;;;-1.00;99.90;;;-0.07;100.00;99298.66;5051641;28;20500;-79
2021/11/23 04:03:32;;;;;;;4.10;2.63;;;-1.00;99.90;;;-0.09;100.00;99305.63;5053024;28;20480;-80
2021/11/23 04:06:00;;;;;;;3.17;1.97;;;-1.00;99.90;;;-0.09;100.00;99306.47;5057725;28;20456;-80
2021/11/23 04:08:29;;;;;;;2.33;2.10;;;-0.90;99.90;;;-0.04;100.00;99301.06;5058688;28;20502;-80
2021/11/23 04:10:58;;;;;;;5.20;2.50;;;-0.90;99.90;;;-0.06;100.00;99306.28;5050757;28;20441;-80
2021/11/23 04:13:28;;;;;;;16.23;2.53;;;-1.00;99.90;;;-0.02;100.00;99301.78;5058930;28;20795;-80
2021/11/23 04:15:56;;;;;;;3.03;2.40;;;-0.80;99.90;;;-0.05;100.00;99301.97;5058969;28;20495;-80
2021/11/23 04:18:25;;;;;;;2.47;2.20;;;-0.80;99.90;;;-0.05;100.00;99307.09;5058650;28;20867;-80
2021/11/23 04:20:53;;;;;;;2.43;1.60;;;-0.80;99.90;;;-0.05;100.00;99309.69;5053245;28;20515;-81
2021/11/23 04:23:22;;;;;;;3.50;2.23;;;-0.80;99.90;;;-0.05;100.00;99307.09;5053745;28;20543;-80
2021/11/23 04:25:51;;;;;;;5.83;2.20;;;-0.90;99.90;;;-0.08;100.00;99315.00;5055533;28;20579;-81
2021/11/23 04:28:19;;;;;;;72.80;22.10;;;-0.80;99.90;;;-0.07;100.00;99314.09;5056225;28;21030;-79
2021/11/23 04:30:49;;;;;;;2.10;1.90;;;-0.80;99.90;;;-0.09;100.00;99305.63;5056463;28;20574;-80
2021/11/23 04:33:18;;;;;;;2.10;1.90;;;-1.00;99.90;;;-0.10;100.00;99314.25;5055011;28;20457;-80
2021/11/23 04:35:47;;;;;;;3.00;2.03;;;-1.00;99.90;;;-0.11;100.00;99308.31;5054166;28;20481;-80
2021/11/23 04:38:15;;;;;;;3.13;2.20;;;-1.00;99.90;;;-0.11;100.00;99307.47;5049669;28;20666;-80
2021/11/23 04:40:44;;;;;;;3.20;2.27;;;-1.00;99.90;;;-0.12;100.00;99306.66;5057707;28;20458;-80
2021/11/23 04:43:13;;;;;;;2.70;2.07;;;-1.00;99.90;;;-0.15;100.00;99311.97;5058343;28;20538;-80
2021/11/23 04:45:42;;;;;;;4.10;2.00;;;-1.00;99.90;;;-0.14;100.00;99307.66;5053214;28;20481;-80
2021/11/23 04:48:12;;;;;;;4.20;2.37;;;-1.00;99.90;;;-0.17;100.00;99316.34;5053251;28;20471;-80
2021/11/23 04:50:41;;;;;;;3.27;2.30;;;-0.90;99.90;;;-0.18;100.00;99313.88;5052550;28;20538;-80
2021/11/23 04:53:09;;;;;;;3.97;2.27;;;-1.00;99.90;;;-0.17;100.00;99315.50;5054601;28;20449;-80
2021/11/23 04:55:38;;;;;;;3.93;2.10;;;-1.00;99.90;;;-0.18;100.00;99317.28;5052472;28;20979;-80
2021/11/23 04:58:07;;;;;;;2.40;1.93;;;-1.10;99.90;;;-0.18;100.00;99330.13;5055967;28;20458;-81
2021/11/23 05:00:35;;;;;;;4.53;1.97;;;-1.00;99.90;;;-0.23;100.00;99327.00;5053048;28;20472;-80
2021/11/23 05:03:05;;;;;;;3.47;2.33;;;-1.10;99.90;;;-0.23;100.00;99326.16;5060410;28;20496;-80
2021/11/23 05:05:35;;;;;;;6.93;2.17;;;-1.10;99.90;;;-0.25;100.00;99320.28;5061959;28;20455;-80
2021/11/23 05:08:04;;;;;;;7.50;2.13;;;-1.10;99.90;;;-0.25;100.00;99315.16;5054462;28;20932;-80
2021/11/23 05:10:33;;;;;;;5.73;2.10;;;-1.10;99.90;;;-0.28;100.00;99325.59;5052699;28;20460;-79
2021/11/23 05:13:01;;;;;;;2.17;1.97;;;-1.20;99.90;;;-0.28;100.00;99330.75;5053850;28;20445;-77
2021/11/23 05:15:30;;;;;;;1.90;1.80;;;-1.20;99.90;;;-0.28;100.00;99323.03;5052302;28;20464;-77
2021/11/23 05:17:59;;;;;;;2.40;2.20;;;-1.20;99.90;;;-0.26;100.00;99321.19;5052411;28;20602;-78
2021/11/23 05:20:28;;;;;;;5.13;3.50;;;-1.20;99.90;;;-0.33;100.00;99322.47;5055019;28;20468;-77
2021/11/23 05:22:58;;;;;;;2.30;2.10;;;-1.10;99.90;;;-0.30;100.00;99332.56;5057247;28;20496;-77
2021/11/23 05:25:26;;;;;;;2.43;1.90;;;-1.10;99.90;;;-0.31;100.00;99326.59;5052178;28;20995;-77
2021/11/23 05:27:55;;;;;;;9.90;5.47;;;-1.10;99.90;;;-0.30;100.00;99333.38;5056722;28;20971;-77
2021/11/23 05:30:23;;;;;;;2.77;2.53;;;-1.10;99.90;;;-0.27;100.00;99338.34;5056392;28;20494;-77
2021/11/23 05:32:53;;;;;;;4.33;2.43;;;-1.10;99.90;;;-0.35;100.00;99334.56;5066218;28;20502;-78
2021/11/23 05:35:22;;;;;;;4.00;2.03;;;-1.30;99.90;;;-0.40;100.00;99339.97;5055202;28;20514;-78
2021/11/23 05:37:51;;;;;;;3.00;1.93;;;-1.40;99.90;;;-0.42;100.00;99338.41;5058094;28;20534;-78
2021/11/23 05:40:21;;;;;;;2.50;2.03;;;-1.40;99.90;;;-0.50;100.00;99336.25;5061131;28;20476;-77
2021/11/23 05:42:50;;;;;;;3.30;2.63;;;-1.50;99.90;;;-0.58;100.00;99328.97;5062952;28;20851;-78
2021/11/23 05:45:19;;;;;;;3.80;2.03;;;-1.60;99.90;;;-0.60;100.00;99335.13;5054722;28;20449;-78
2021/11/23 05:47:51;;;;;;;2.60;1.93;;;-1.70;99.90;;;-0.55;100.00;99341.66;5065546;28;20473;-77
2021/11/23 05:50:20;;;;;;;2.40;2.10;;;-1.50;99.90;;;-0.57;100.00;99335.78;5059866;28;20503;-78
2021/11/23 05:52:50;;;;;;;3.47;1.90;;;-1.60;99.90;;;-0.63;100.00;99341.25;5058721;28;20963;-78
2021/11/23 05:55:20;;;;;;;4.23;2.10;;;-1.60;99.90;;;-0.61;100.00;99346.31;5061092;28;20516;-78
2021/11/23 05:57:48;;;;;;;2.60;2.03;;;-1.60;99.90;;;-0.62;100.00;99342.06;5053974;28;20506;-78
2021/11/23 06:00:17;;;;;;;2.90;1.80;;;-1.50;99.90;;;-0.59;100.00;99342.72;5062276;28;20456;-78
2021/11/23 06:02:45;;;;;;;2.43;2.10;;;-1.50;99.90;;;-0.54;100.00;99345.03;5054721;28;20497;-78
2021/11/23 06:05:14;;;;;;;7.97;2.37;;;-1.50;99.90;;;-0.56;100.00;99347.72;5064295;28;20944;-78
2021/11/23 06:07:42;;;;;;;2.43;2.23;;;-1.50;99.90;;;-0.56;100.00;99341.75;5059749;28;20450;-77
2021/11/23 06:10:11;;;;;;;2.00;1.83;;;-1.50;99.90;;;-0.56;100.00;99345.16;5053460;28;20453;-78
2021/11/23 06:12:41;;;;;;;2.10;1.90;;;-1.40;99.90;;;-0.58;100.00;99343.56;5062543;28;20523;-78
2021/11/23 06:15:11;;;;;;;2.77;2.20;;;-1.50;99.90;;;-0.60;100.00;99350.53;5056870;28;21185;-78
2021/11/23 06:17:39;;;;;;;6.17;2.63;;;-1.60;99.90;;;-0.66;100.00;99349.13;5058931;28;20513;-77
2021/11/23 06:20:10;;;;;;;3.23;2.17;;;-1.70;99.90;;;-0.77;100.00;99353.19;5058382;28;21013;-77
2021/11/23 06:22:38;;;;;;;2.50;2.30;;;-1.80;99.90;;;-0.82;100.00;99358.56;5050410;28;20449;-78
2021/11/23 06:25:09;;;;;;;3.17;2.40;;;-1.90;99.90;;;-0.81;100.00;99360.25;5056335;28;20460;-77
2021/11/23 06:27:40;;;;;;;3.90;2.50;;;-1.90;99.90;;;-0.82;100.00;99362.88;5058874;28;20484;-78
2021/11/23 06:30:10;;;;;;;6.63;2.20;;;-1.90;99.90;;;-0.87;100.00;99363.16;5056384;28;20475;-77
2021/11/23 06:32:39;;;;;;;3.73;2.47;;;-1.90;99.90;;;-0.81;100.00;99364.53;5057976;28;20925;-78
2021/11/23 06:35:08;;;;;;;2.70;1.90;;;-1.80;99.90;;;-0.78;100.00;99375.47;5056977;28;20468;-78
2021/11/23 06:37:37;;;;;;;4.53;2.93;;;-1.70;99.90;;;-0.76;100.00;99375.38;5066343;28;20451;-78
2021/11/23 06:40:10;;;;;;;3.40;2.10;;;-1.70;99.90;;;-0.82;100.00;99378.28;5054559;28;20980;-77
2021/11/23 06:42:40;;;;;;;2.93;2.23;;;-1.90;99.90;;;-0.93;100.00;99384.00;5066647;28;20451;-77
2021/11/23 06:45:12;;;;;;;4.83;2.10;;;-2.00;99.90;;;-0.93;100.00;99384.00;5053909;28;20520;-78
2021/11/23 06:47:42;;;;;;;4.97;1.73;;;-1.90;99.90;;;-0.90;100.00;99388.16;5054368;28;20453;-78
2021/11/23 06:50:11;;;;;;;2.20;2.00;;;-1.90;99.90;;;-0.93;100.00;99384.00;5058113;28;21052;-78
2021/11/23 06:52:40;;;;;;;3.43;2.30;;;-1.90;99.90;;;-0.93;100.00;99391.69;5055604;28;20448;-78
2021/11/23 06:55:10;;;;;;;2.17;1.93;;;-1.90;99.90;;;-0.94;100.00;99392.63;5057417;28;20521;-78
2021/11/23 06:57:40;;;;;;;2.23;2.03;;;-1.90;99.90;;;-0.89;100.00;99395.75;5053858;28;20922;-78
2021/11/23 07:00:11;;;;;;;3.30;2.43;;;-1.90;99.90;;;-0.96;100.00;99402.13;5060117;28;21540;-78
2021/11/23 07:02:39;;;;;;;2.40;2.20;;;-2.00;99.90;;;-0.96;100.00;99393.59;5070141;28;20524;-78
2021/11/23 07:05:09;;;;;;;5.53;3.30;;;-1.80;99.90;;;-0.90;100.00;99404.34;5070659;28;20440;-78
2021/11/23 07:07:39;;;;;;;2.47;2.27;;;-1.70;99.90;;;-0.86;100.00;99408.44;5069231;28;20815;-78
2021/11/23 07:10:11;;;;;;;2.70;2.43;;;-1.70;99.90;;;-0.81;100.00;99413.31;5063804;28;21317;-78
2021/11/23 07:13:02;;;;;;;3.33;2.07;;;-1.60;99.90;;;-0.81;100.00;99406.44;5063981;28;20877;-78
2021/11/23 07:15:31;;;;;;;4.43;2.53;;;-1.50;99.90;;;-0.87;100.00;99416.22;5077441;28;20455;-78
2021/11/23 07:18:00;;;;;;;2.73;2.43;;;-1.70;99.90;;;-0.91;100.00;99413.00;5070524;28;20479;-78
2021/11/23 07:20:29;;;;;;;6.33;2.70;;;-1.60;99.90;;;-0.91;100.00;99407.84;5070855;28;20553;-78
2021/11/23 07:22:57;;;;;;;4.67;2.33;;;-1.70;99.90;;;-0.94;100.00;99402.91;5071724;28;20494;-78
2021/11/23 07:25:26;;;;;;;2.83;2.40;;;-1.80;99.90;;;-0.87;100.00;99414.50;5073110;28;21001;-78
2021/11/23 07:27:55;;;;;;;5.40;2.50;;;-1.70;99.90;;;-0.86;100.00;99408.44;5071834;28;20943;-78
2021/11/23 07:30:25;;;;;;;2.50;2.17;;;-1.70;99.90;;;-0.85;100.00;99410.09;5060515;28;20470;-78
2021/11/23 07:32:54;;;;;;;2.43;2.00;;;-1.70;99.90;;;-0.88;100.00;99407.69;5072354;28;20447;-78
2021/11/23 07:35:22;;;;;;;3.27;2.30;;;-1.80;99.90;;;-0.86;100.00;99411.00;5064766;28;20477;-77
2021/11/23 07:37:51;;;;;;;2.70;2.23;;;-1.80;99.90;;;-0.91;100.00;99414.72;5071867;28;20448;-78
2021/11/23 07:40:20;;;;;;;3.93;2.73;;;-1.80;99.90;;;-0.91;100.00;99417.28;5068726;28;20470;-78
2021/11/23 07:42:49;;;;;;;4.00;2.27;;;-1.90;99.90;;;-0.90;100.00;99419.75;5068151;28;20502;-78
2021/11/23 07:45:39;;;;;;;4.07;2.43;;;-1.80;99.90;;;-0.88;100.00;99417.97;5074558;28;20567;-77
2021/11/23 07:48:10;;;;;;;3.80;2.30;;;-1.80;99.90;;;-0.87;100.00;99424.75;5066987;28;20498;-78
2021/11/23 07:50:41;;;;;;;2.83;2.53;;;-1.80;99.90;;;-0.88;100.00;99417.97;5074941;28;20840;-78
2021/11/23 07:53:10;;;;;;;2.60;2.30;;;-1.90;99.90;;;-0.88;100.00;99412.00;5069253;28;21080;-78
2021/11/23 07:55:38;;;;;;;4.13;1.80;;;-1.90;99.90;;;-0.92;100.00;99411.31;5072496;28;20443;-78
2021/11/23 07:58:07;;;;;;;3.30;2.53;;;-1.90;99.90;;;-0.85;100.00;99416.97;5072207;28;20494;-77
2021/11/23 08:00:36;;;;;;;2.87;2.37;;;-1.80;99.90;;;-0.82;100.00;99420.19;5067151;28;20465;-78
2021/11/23 08:03:07;;;;;;;4.47;2.50;;;-1.80;99.90;;;-0.78;100.00;99421.69;5067455;28;20485;-78
2021/11/23 08:05:38;;;;;;;4.93;2.20;;;-1.60;99.90;;;-0.75;100.00;99426.66;5061983;28;20496;-78
2021/11/23 08:08:09;;;;;;;3.73;2.50;;;-1.70;99.90;;;-0.74;100.00;99428.31;5072612;28;20513;-78
2021/11/23 08:10:38;;;;;;;3.03;2.60;;;-1.70;99.90;;;-0.78;100.00;99423.44;5066842;28;20565;-78
2021/11/23 08:13:07;;;;;;;5.80;2.40;;;-1.70;99.90;;;-0.75;100.00;99429.22;5072206;28;20506;-77
2021/11/23 08:15:36;;;;;;;3.60;2.10;;;-1.60;99.90;;;-0.73;100.00;99427.38;5072408;28;20879;-78
2021/11/23 08:18:09;;;;;;;2.73;2.37;;;-1.60;99.90;;;-0.78;100.00;99426.81;5071261;28;20456;-78
2021/11/23 08:20:38;;;;;;;3.87;2.37;;;-1.60;99.90;;;-0.72;100.00;99431.63;5057506;28;20868;-78
2021/11/23 08:23:06;;;;;;;5.23;2.43;;;-1.60;99.90;;;-0.70;100.00;99426.41;5068995;28;20489;-78
2021/11/23 08:25:37;;;;;;;3.10;2.37;;;-1.60;99.90;;;-0.67;100.00;99429.66;5062420;28;20556;-78
2021/11/23 08:28:09;;;;;;;3.50;2.13;;;-1.50;99.90;;;-0.64;100.00;99431.22;5055752;28;20445;-77
2021/11/23 08:30:38;;;;;;;7.20;2.50;;;-1.50;99.90;;;-0.64;100.00;99439.75;5068935;28;20498;-78
2021/11/23 08:33:09;;;;;;;4.03;2.53;;;-1.50;99.90;;;-0.58;100.00;99431.72;5068144;28;20553;-78
2021/11/23 08:35:37;;;;;;;9.03;2.30;;;-1.50;99.90;;;-0.56;100.00;99429.06;5071670;28;20467;-78
2021/11/23 08:38:06;;;;;;;2.30;1.80;;;-1.40;99.90;;;-0.51;100.00;99429.63;5069120;28;20460;-78
2021/11/23 08:40:39;;;;;;;3.20;1.90;;;-1.30;99.90;;;-0.52;100.00;99425.41;5069038;28;21044;-78
2021/11/23 08:43:10;;;;;;;2.77;2.10;;;-1.40;99.90;;;-0.46;100.00;99429.38;5063091;28;20459;-77
2021/11/23 08:45:41;;;;;;;2.20;2.00;;;-1.30;99.90;;;-0.44;100.00;99422.41;5063226;28;20652;-77
2021/11/23 08:48:11;;;;;;;5.77;2.57;;;-1.30;99.90;;;-0.47;100.00;99423.41;5065521;28;20483;-78
2021/11/23 08:50:40;;;;;;;2.70;2.20;;;-1.30;99.90;;;-0.41;100.00;99427.38;5067602;28;20480;-77
2021/11/23 08:53:09;;;;;;;4.30;2.60;;;-1.20;99.90;;;-0.38;100.00;99432.38;5060915;28;20543;-78
2021/11/23 08:55:39;;;;;;;3.20;1.87;;;-1.10;99.90;;;-0.33;100.00;99425.22;5064808;28;20448;-77
2021/11/23 08:58:11;;;;;;;2.40;2.10;;;-1.10;99.90;;;-0.34;100.00;99428.69;5055122;28;20449;-78
2021/11/23 09:00:42;;;;;;;5.10;2.17;;;-1.20;99.90;;;-0.31;100.00;99431.94;5060743;28;20521;-78
2021/11/23 09:03:12;;;;;;;2.23;2.00;;;-1.10;99.90;;;-0.28;100.00;99433.53;5061739;28;20471;-77
2021/11/23 09:05:44;;;;;;;2.70;2.23;;;-1.20;99.90;;;-0.22;100.00;99430.59;5070591;28;20502;-78
2021/11/23 09:08:13;;;;;;;2.60;2.20;;;-1.10;99.90;;;-0.20;100.00;99432.16;5066727;28;20459;-78
2021/11/23 09:10:41;;;;;;;5.70;2.30;;;-1.00;99.90;;;-0.21;100.00;99435.66;5064879;28;20469;-77
2021/11/23 09:13:10;;;;;;;4.17;2.57;;;-1.00;99.90;;;-0.14;100.00;99441.31;5061343;28;20455;-78
2021/11/23 09:15:39;;;;;;;3.90;2.40;;;-1.00;99.90;;;-0.07;100.00;99434.91;5069791;28;20968;-77
2021/11/23 09:18:10;;;;;;;4.60;2.57;;;-0.80;99.90;;;-0.04;100.00;99443.28;5060141;28;20470;-78
2021/11/23 09:20:39;;;;;;;16.23;3.07;;;-0.80;99.90;;;-0.02;100.00;99446.56;5070059;28;20486;-78
2021/11/23 09:23:12;;;;;;;5.00;2.40;;;-0.80;99.90;;;0.00;100.00;99434.44;5065557;28;20444;-78
2021/11/23 09:25:42;;;;;;;8.90;2.43;;;-0.70;99.90;;;0.01;100.00;99448.13;5062976;28;20553;-78
2021/11/23 09:28:12;;;;;;;3.07;2.50;;;-0.80;99.90;;;0.04;100.00;99440.25;5060337;28;20472;-77
2021/11/23 09:30:40;;;;;;;2.67;2.43;;;-0.80;99.90;;;0.08;100.00;99443.47;5063751;28;20452;-78
2021/11/23 09:33:10;;;;;;;2.80;2.00;;;-0.70;99.90;;;0.04;100.00;99445.38;5066867;28;20920;-78
2021/11/23 09:35:39;;;;;;;3.20;2.63;;;-0.80;99.90;;;0.11;100.00;99440.72;5062233;28;20478;-78
2021/11/23 09:38:08;;;;;;;3.17;2.50;;;-0.70;99.90;;;0.17;100.00;99446.38;5068801;28;20531;-78
2021/11/23 09:40:37;;;;;;;7.20;2.53;;;-0.60;99.90;;;0.23;100.00;99438.28;5068218;28;20508;-78
2021/11/23 09:43:06;;;;;;;7.20;2.67;;;-0.50;99.90;;;0.26;100.00;99443.25;5067834;28;20782;-78
2021/11/23 09:45:35;;;;;;;6.63;2.80;;;-0.50;99.90;;;0.30;100.00;99442.19;5069640;28;21484;-78
2021/11/23 09:48:10;;;;;;;8.57;3.80;;;-0.40;99.90;;;0.32;100.00;99440.31;5068263;28;20436;-78
2021/11/23 09:50:42;;;;;;;5.33;3.00;;;-0.40;99.90;;;0.38;100.00;99439.97;5068311;28;20533;-78
2021/11/23 09:53:11;;;;;;;2.60;2.23;;;-0.30;99.90;;;0.44;100.00;99443.94;5059700;28;20471;-78
2021/11/23 09:55:42;;;;;;;2.90;2.37;;;-0.30;99.90;;;0.48;100.00;99443.69;5067404;28;20515;-78
2021/11/23 09:58:10;;;;;;;3.00;2.70;;;-0.30;99.90;;;0.52;100.00;99436.63;5059853;28;20515;-78
2021/11/23 10:00:44;;;;;;;2.80;2.00;;;-0.20;99.90;;;0.55;100.00;99438.19;5062634;28;20503;-78
2021/11/23 10:03:23;;;;;;;3.73;2.03;;;-0.20;99.90;;;0.61;100.00;99436.06;5056460;28;20478;-78
2021/11/23 10:06:09;;;;;;;7.60;2.33;;;-0.10;99.90;;;0.67;100.00;99438.28;5069171;28;20503;-77
2021/11/23 10:08:41;;;;;;;7.97;2.20;;;-0.10;99.90;;;0.74;100.00;99431.00;5068399;28;20633;-78
2021/11/23 10:11:13;;;;;;;2.13;1.90;;;0.00;99.90;;;0.77;100.00;99426.50;5057376;28;20947;-79
2021/11/23 10:13:45;;;;;;;2.87;2.10;;;0.00;99.90;;;0.77;100.00;99423.09;5069010;28;20461;-78
2021/11/23 10:16:14;;;;;;;2.20;1.60;;;0.00;99.90;;;0.82;100.00;99424.50;5069125;28;20451;-78
2021/11/23 10:18:51;;;;;;;3.73;2.40;;;0.10;99.90;;;0.96;100.00;99421.09;5068655;28;20448;-78
2021/11/23 10:21:27;;;;;;;2.13;1.93;;;0.30;99.90;;;1.05;100.00;99415.38;5067129;28;20501;-78
2021/11/23 10:23:56;;;;;;;2.07;1.87;;;0.40;99.90;;;1.16;100.00;99420.69;5060602;28;21001;-78
2021/11/23 10:26:30;;;;;;;2.20;1.60;;;0.50;99.90;;;1.24;100.00;99415.91;5064125;28;20496;-78